createdAt,value
2022-12-08T00:01:11.156Z,93833.66
2022-12-08T00:03:38.365Z,93824.09
2022-12-08T00:06:25.013Z,93821.59
2022-12-08T00:09:10.571Z,93814.69
2022-12-08T00:11:37.159Z,93817.41
2022-12-08T00:14:03.661Z,93816.00
2022-12-08T00:16:30.204Z,93814.25
2022-12-08T00:18:56.763Z,93807.78
2022-12-08T00:21:23.501Z,93807.97
2022-12-08T00:23:49.984Z,93803.53
2022-12-08T00:26:16.589Z,93806.06
2022-12-08T00:28:43.356Z,93804.19
2022-12-08T00:31:11.436Z,93801.03
2022-12-08T00:33:38.572Z,93790.16
2022-12-08T00:36:11.067Z,93789.88
2022-12-08T00:38:38.737Z,93789.72
2022-12-08T00:41:12.771Z,93784.22
2022-12-08T00:43:39.407Z,93781.69
2022-12-08T00:46:06.220Z,93779.19
2022-12-08T00:48:33.752Z,93783.59
2022-12-08T00:51:00.410Z,93773.84
2022-12-08T00:53:26.915Z,93772.56
2022-12-08T00:55:53.572Z,93766.59
2022-12-08T00:58:20.079Z,93763.91
2022-12-08T01:00:46.676Z,93767.69
2022-12-08T01:03:13.437Z,93766.00
2022-12-08T01:05:40.009Z,93772.28
2022-12-08T01:08:07.562Z,93772.88
2022-12-08T01:10:39.488Z,93769.44
2022-12-08T01:13:05.894Z,93768.03
2022-12-08T01:15:32.410Z,93763.63
2022-12-08T01:17:58.955Z,93767.53
2022-12-08T01:20:25.625Z,93764.56
2022-12-08T01:22:52.180Z,93756.38
2022-12-08T01:25:18.716Z,93768.34
2022-12-08T01:27:45.248Z,93758.72
2022-12-08T01:30:13.226Z,93760.78
2022-12-08T01:32:39.839Z,93763.16
2022-12-08T01:35:06.512Z,93762.38
2022-12-08T01:37:33.490Z,93758.91
2022-12-08T01:39:59.983Z,93763.47
2022-12-08T01:42:26.549Z,93761.44
2022-12-08T01:44:54.651Z,93766.03
2022-12-08T01:47:22.954Z,93774.22
2022-12-08T01:49:49.527Z,93769.19
2022-12-08T01:52:37.833Z,93755.00
2022-12-08T01:55:10.306Z,93758.78
2022-12-08T01:57:47.244Z,93752.31
2022-12-08T02:00:16.890Z,93755.63
2022-12-08T02:02:59.433Z,93756.72
2022-12-08T02:05:29.753Z,93750.28
2022-12-08T02:07:57.822Z,93750.75
2022-12-08T02:10:29.155Z,93745.88
2022-12-08T02:12:58.033Z,93741.94
2022-12-08T02:16:09.531Z,93748.09
2022-12-08T02:19:28.916Z,93746.50
2022-12-08T02:22:11.772Z,93736.78
2022-12-08T02:25:00.200Z,93742.59
2022-12-08T02:27:40.162Z,93737.25
2022-12-08T02:30:12.423Z,93725.44
2022-12-08T02:33:16.686Z,93733.47
2022-12-08T02:35:49.379Z,93734.28
2022-12-08T02:38:24.207Z,93736.19
2022-12-08T02:41:06.036Z,93730.50
2022-12-08T02:43:38.205Z,93732.69
2022-12-08T02:46:24.933Z,93730.97
2022-12-08T02:48:52.530Z,93728.31
2022-12-08T02:51:19.719Z,93726.56
2022-12-08T02:53:47.206Z,93716.47
2022-12-08T02:56:46.284Z,93710.31
2022-12-08T02:59:27.702Z,93712.66
2022-12-08T03:02:00.992Z,93707.31
2022-12-08T03:05:04.870Z,93699.47
2022-12-08T03:07:53.051Z,93699.66
2022-12-08T03:10:29.681Z,93696.22
2022-12-08T03:13:07.680Z,93694.47
2022-12-08T03:15:36.862Z,93700.91
2022-12-08T03:18:05.295Z,93699.38
2022-12-08T03:20:34.879Z,93696.22
2022-12-08T03:23:05.880Z,93694.94
2022-12-08T03:25:37.908Z,93691.16
2022-12-08T03:28:05.906Z,93698.56
2022-12-08T03:30:38.739Z,93690.69
2022-12-08T03:33:13.856Z,93688.47
2022-12-08T03:35:41.734Z,93681.50
2022-12-08T03:38:14.750Z,93674.25
2022-12-08T03:40:41.360Z,93682.56
2022-12-08T03:43:08.110Z,93662.34
2022-12-08T03:45:41.123Z,93662.00
2022-12-08T03:48:12.948Z,93662.00
2022-12-08T03:50:39.678Z,93659.66
2022-12-08T03:53:06.202Z,93660.56
2022-12-08T03:55:32.714Z,93651.81
2022-12-08T03:57:59.237Z,93644.88
2022-12-08T04:00:25.906Z,93647.53
2022-12-08T04:02:52.430Z,93651.25
2022-12-08T04:05:18.930Z,93653.59
2022-12-08T04:07:45.470Z,93639.50
2022-12-08T04:10:12.096Z,93632.63
2022-12-08T04:12:38.702Z,93633.16
2022-12-08T04:15:05.597Z,93633.41
2022-12-08T04:17:32.706Z,93633.34
2022-12-08T04:20:26.724Z,93630.03
2022-12-08T04:23:18.134Z,93631.28
2022-12-08T04:26:01.074Z,93623.31
2022-12-08T04:28:48.104Z,93621.75
2022-12-08T04:31:20.533Z,93621.19
2022-12-08T04:33:47.241Z,93623.31
2022-12-08T04:36:13.846Z,93621.06
2022-12-08T04:38:40.412Z,93619.31
2022-12-08T04:41:06.953Z,93623.09
2022-12-08T04:43:33.518Z,93623.19
2022-12-08T04:46:00.030Z,93624.28
2022-12-08T04:48:26.576Z,93621.75
2022-12-08T04:50:53.140Z,93616.06
2022-12-08T04:53:20.073Z,93611.47
2022-12-08T04:55:48.648Z,93613.31
2022-12-08T04:58:18.913Z,93616.25
2022-12-08T05:00:46.399Z,93617.59
2022-12-08T05:03:13.891Z,93614.78
2022-12-08T05:05:42.071Z,93610.72
2022-12-08T05:08:09.945Z,93609.06
2022-12-08T05:10:36.859Z,93612.19
2022-12-08T05:13:03.368Z,93609.22
2022-12-08T05:15:30.022Z,93614.91
2022-12-08T05:17:56.534Z,93617.72
2022-12-08T05:20:23.047Z,93610.38
2022-12-08T05:22:49.590Z,93617.44
2022-12-08T05:25:16.116Z,93618.41
2022-12-08T05:27:43.101Z,93615.41
2022-12-08T05:30:09.810Z,93620.75
2022-12-08T05:32:36.482Z,93616.16
2022-12-08T05:35:03.124Z,93626.50
2022-12-08T05:37:29.658Z,93622.59
2022-12-08T05:39:56.251Z,93618.34
2022-12-08T05:42:24.901Z,93608.69
2022-12-08T05:44:52.137Z,93612.47
2022-12-08T05:47:18.646Z,93609.75
2022-12-08T05:49:45.354Z,93605.88
2022-12-08T05:52:11.900Z,93607.09
2022-12-08T05:54:39.386Z,93608.41
2022-12-08T05:57:05.916Z,93609.47
2022-12-08T05:59:32.572Z,93602.22
2022-12-08T06:01:59.209Z,93606.75
2022-12-08T06:04:25.975Z,93605.00
2022-12-08T06:06:52.629Z,93595.81
2022-12-08T06:09:19.119Z,93610.63
2022-12-08T06:11:47.099Z,93605.41
2022-12-08T06:14:13.938Z,93603.50
2022-12-08T06:16:40.621Z,93607.28
2022-12-08T06:19:07.461Z,93600.75
2022-12-08T06:21:34.142Z,93607.69
2022-12-08T06:24:00.702Z,93602.94
2022-12-08T06:26:27.544Z,93601.94
2022-12-08T06:28:54.090Z,93596.50
2022-12-08T06:31:24.623Z,93599.19
2022-12-08T06:33:52.002Z,93602.97
2022-12-08T06:36:20.430Z,93604.38
2022-12-08T06:38:47.379Z,93602.47
2022-12-08T06:41:14.559Z,93601.03
2022-12-08T06:43:41.652Z,93600.25
2022-12-08T06:46:11.532Z,93605.16
2022-12-08T06:48:38.287Z,93601.03
2022-12-08T06:51:13.324Z,93596.72
2022-12-08T06:53:43.227Z,93596.66
2022-12-08T06:56:10.493Z,93606.13
2022-12-08T06:58:37.002Z,93602.59
2022-12-08T07:01:05.865Z,93596.91
2022-12-08T07:03:32.564Z,93603.06
2022-12-08T07:06:03.758Z,93601.50
2022-12-08T07:08:31.523Z,93598.47
2022-12-08T07:10:58.080Z,93605.78
2022-12-08T07:13:24.675Z,93592.28
2022-12-08T07:15:51.359Z,93597.19
2022-12-08T07:18:17.948Z,93598.34
2022-12-08T07:20:44.502Z,93594.81
2022-12-08T07:23:11.046Z,93594.59
2022-12-08T07:25:37.550Z,93595.78
2022-12-08T07:28:08.282Z,93595.81
2022-12-08T07:30:34.822Z,93596.94
2022-12-08T07:33:02.936Z,93595.88
2022-12-08T07:35:29.463Z,93601.75
2022-12-08T07:37:56.076Z,93596.88
2022-12-08T07:40:22.788Z,93601.13
2022-12-08T07:42:49.303Z,93602.59
2022-12-08T07:45:15.873Z,93597.81
2022-12-08T07:47:42.410Z,93600.41
2022-12-08T07:50:08.955Z,93592.47
2022-12-08T07:52:35.846Z,93603.44
2022-12-08T07:55:02.500Z,93599.63
2022-12-08T07:57:29.016Z,93593.19
2022-12-08T07:59:55.519Z,93600.09
2022-12-08T08:02:24.634Z,93600.88
2022-12-08T08:04:52.783Z,93595.63
2022-12-08T08:07:19.381Z,93596.31
2022-12-08T08:09:46.002Z,93597.75
2022-12-08T08:15:00.099Z,93586.88
2022-12-08T08:17:26.818Z,93585.38
2022-12-08T08:19:53.397Z,93578.78
2022-12-08T08:22:19.894Z,93584.63
2022-12-08T08:24:46.382Z,93581.69
2022-12-08T08:27:13.951Z,93586.72
2022-12-08T08:29:40.532Z,93582.25
2022-12-08T08:32:07.165Z,93585.81
2022-12-08T08:34:33.788Z,93586.91
2022-12-08T08:37:00.471Z,93587.78
2022-12-08T08:39:27.355Z,93582.28
2022-12-08T08:41:53.898Z,93582.91
2022-12-08T08:44:20.386Z,93584.13
2022-12-08T08:46:47.140Z,93588.03
2022-12-08T08:49:14.020Z,93579.28
2022-12-08T08:51:40.645Z,93573.38
2022-12-08T08:54:07.185Z,93571.78
2022-12-08T08:56:33.712Z,93568.75
2022-12-08T08:59:00.301Z,93573.00
2022-12-08T09:01:28.104Z,93564.69
2022-12-08T09:03:55.557Z,93568.94
2022-12-08T09:06:23.158Z,93563.66
2022-12-08T09:08:49.875Z,93564.31
2022-12-08T09:11:18.643Z,93563.94
2022-12-08T09:13:49.471Z,93560.34
2022-12-08T09:16:17.055Z,93553.38
2022-12-08T09:18:43.690Z,93560.50
2022-12-08T09:21:22.383Z,93558.13
2022-12-08T09:23:50.660Z,93557.38
2022-12-08T09:26:17.237Z,93559.47
2022-12-08T09:28:46.442Z,93557.72
2022-12-08T09:31:14.835Z,93548.81
2022-12-08T09:33:41.544Z,93557.41
2022-12-08T09:36:08.760Z,93557.16
2022-12-08T09:38:35.989Z,93551.66
2022-12-08T09:41:11.203Z,93558.19
2022-12-08T09:43:44.825Z,93547.06
2022-12-08T09:46:15.110Z,93549.25
2022-12-08T09:48:55.449Z,93549.94
2022-12-08T09:51:25.531Z,93551.50
2022-12-08T09:53:56.947Z,93550.00
2022-12-08T09:56:27.563Z,93548.19
2022-12-08T09:59:02.068Z,93553.94
2022-12-08T10:01:41.970Z,93553.41
2022-12-08T10:04:38.344Z,93548.78
2022-12-08T10:07:23.678Z,93538.25
2022-12-08T10:10:22.646Z,93533.06
2022-12-08T10:13:03.496Z,93534.66
2022-12-08T10:15:41.677Z,93530.03
2022-12-08T10:18:20.980Z,93522.47
2022-12-08T10:20:50.182Z,93519.50
2022-12-08T10:23:36.608Z,93521.25
2022-12-08T10:26:12.794Z,93516.81
2022-12-08T10:28:44.748Z,93516.53
2022-12-08T10:31:21.425Z,93514.19
2022-12-08T10:33:55.190Z,93512.38
2022-12-08T10:36:21.757Z,93514.97
2022-12-08T10:38:48.240Z,93507.13
2022-12-08T10:41:18.075Z,93511.13
2022-12-08T10:43:48.605Z,93503.47
2022-12-08T10:46:27.045Z,93504.75
2022-12-08T10:49:13.038Z,93504.59
2022-12-08T10:51:41.892Z,93489.69
2022-12-08T10:54:28.881Z,93489.47
2022-12-08T10:56:57.107Z,93473.81
2022-12-08T10:59:25.617Z,93479.28
2022-12-08T11:01:55.052Z,93473.03
2022-12-08T11:04:39.535Z,93471.19
2022-12-08T11:07:08.555Z,93465.66
2022-12-08T11:09:50.726Z,93474.38
2022-12-08T11:12:19.384Z,93465.03
2022-12-08T11:14:45.906Z,93458.28
2022-12-08T11:17:26.997Z,93452.19
2022-12-08T11:20:08.976Z,93458.34
2022-12-08T11:22:43.671Z,93454.53
2022-12-08T11:25:16.404Z,93451.31
2022-12-08T11:27:46.283Z,93450.06
2022-12-08T11:30:21.436Z,93443.75
2022-12-08T11:32:56.115Z,93438.53
2022-12-08T11:35:28.487Z,93442.69
2022-12-08T11:38:27.950Z,93433.84
2022-12-08T11:41:03.400Z,93439.06
2022-12-08T11:43:40.791Z,93428.91
2022-12-08T11:46:20.152Z,93436.81
2022-12-08T11:48:50.526Z,93429.09
2022-12-08T11:51:32.128Z,93429.91
2022-12-08T11:54:32.183Z,93426.88
2022-12-08T11:57:01.839Z,93417.41
2022-12-08T11:59:41.663Z,93416.34
2022-12-08T12:02:15.939Z,93413.69
2022-12-08T12:05:02.957Z,93404.41
2022-12-08T12:07:59.506Z,93403.97
2022-12-08T12:10:32.400Z,93386.72
2022-12-08T12:13:19.940Z,93397.50
2022-12-08T12:15:49.690Z,93406.78
2022-12-08T12:18:31.202Z,93397.56
2022-12-08T12:21:19.198Z,93397.38
2022-12-08T12:23:52.975Z,93389.00
2022-12-08T12:26:23.512Z,93394.50
2022-12-08T12:29:14.688Z,93385.69
2022-12-08T12:31:47.234Z,93383.66
2022-12-08T12:34:50.921Z,93385.06
2022-12-08T12:37:22.067Z,93386.06
2022-12-08T12:40:11.952Z,93384.13
2022-12-08T12:42:46.599Z,93390.91
2022-12-08T12:45:16.262Z,93392.59
2022-12-08T12:47:54.315Z,93388.34
2022-12-08T12:50:34.933Z,93390.63
2022-12-08T12:53:09.144Z,93387.22
2022-12-08T12:55:55.834Z,93380.53
2022-12-08T12:58:35.740Z,93384.06
2022-12-08T13:01:14.120Z,93386.63
2022-12-08T13:03:47.396Z,93387.63
2022-12-08T13:06:21.516Z,93382.69
2022-12-08T13:08:55.129Z,93381.94
2022-12-08T13:11:23.251Z,93383.44
2022-12-08T13:14:03.607Z,93385.72
2022-12-08T13:16:37.581Z,93388.06
2022-12-08T13:19:12.566Z,93381.81
2022-12-08T13:21:39.915Z,93381.34
2022-12-08T13:24:26.888Z,93379.97
2022-12-08T13:27:13.594Z,93375.28
2022-12-08T13:29:40.419Z,93379.41
2022-12-08T13:32:06.851Z,93373.41
2022-12-08T13:34:52.998Z,93378.66
2022-12-08T13:37:29.471Z,93371.91
2022-12-08T13:40:07.529Z,93370.28
2022-12-08T13:42:43.160Z,93372.97
2022-12-08T13:45:33.509Z,93371.28
2022-12-08T13:48:41.672Z,93371.84
2022-12-08T13:57:25.879Z,93363.56
2022-12-08T13:59:52.497Z,93363.50
2022-12-08T14:02:49.067Z,93362.88
2022-12-08T14:05:34.622Z,93364.50
2022-12-08T14:08:58.001Z,93369.09
2022-12-08T14:11:38.012Z,93369.66
2022-12-08T14:14:13.041Z,93365.38
2022-12-08T14:16:43.521Z,93362.69
2022-12-08T14:19:22.788Z,93365.13
2022-12-08T14:21:59.608Z,93362.63
2022-12-08T14:24:28.547Z,93352.28
2022-12-08T14:26:59.434Z,93359.72
2022-12-08T14:29:41.622Z,93362.81
2022-12-08T14:32:34.130Z,93359.78
2022-12-08T14:35:06.529Z,93357.44
2022-12-08T14:37:47.333Z,93359.28
2022-12-08T14:40:23.142Z,93369.28
2022-12-08T14:43:07.925Z,93359.22
2022-12-08T14:45:40.521Z,93346.09
2022-12-08T14:48:39.096Z,93337.13
2022-12-08T14:51:21.234Z,93329.06
2022-12-08T14:54:01.053Z,93340.63
2022-12-08T14:56:38.030Z,93345.41
2022-12-08T14:59:17.581Z,93344.28
2022-12-08T15:01:45.581Z,93342.00
2022-12-08T15:04:12.082Z,93346.34
2022-12-08T15:06:54.259Z,93351.53
2022-12-08T15:09:40.974Z,93349.09
2022-12-08T15:12:13.700Z,93354.06
2022-12-08T15:14:58.146Z,93357.94
2022-12-08T15:17:40.023Z,93358.91
2022-12-08T15:20:07.591Z,93361.53
2022-12-08T15:22:34.407Z,93370.47
2022-12-08T15:25:00.895Z,93359.50
2022-12-08T15:27:27.589Z,93372.88
2022-12-08T15:29:54.170Z,93363.59
2022-12-08T15:32:22.820Z,93355.97
2022-12-08T15:34:50.250Z,93354.69
2022-12-08T15:37:22.912Z,93349.78
2022-12-08T15:39:49.861Z,93348.06
2022-12-08T15:42:16.848Z,93346.66
2022-12-08T15:44:43.710Z,93346.09
2022-12-08T15:47:19.080Z,93340.72
2022-12-08T15:49:46.584Z,93335.97
2022-12-08T15:52:15.543Z,93338.78
2022-12-08T15:54:42.276Z,93338.25
2022-12-08T15:57:53.076Z,93330.19
2022-12-08T16:04:09.343Z,93328.75
2022-12-08T16:09:12.708Z,93323.75
2022-12-08T16:12:08.550Z,93311.34
2022-12-08T16:17:22.774Z,93319.06
2022-12-08T16:19:49.526Z,93316.84
2022-12-08T16:25:18.353Z,93321.44
2022-12-08T16:30:34.160Z,93311.25
2022-12-08T16:33:00.912Z,93316.22
2022-12-08T16:35:27.412Z,93316.03
2022-12-08T16:37:54.021Z,93319.94
2022-12-08T16:40:20.941Z,93313.16
2022-12-08T16:42:49.749Z,93312.03
2022-12-08T16:45:22.295Z,93313.16
2022-12-08T16:47:52.309Z,93315.66
2022-12-08T16:50:23.574Z,93315.19
2022-12-08T16:52:55.488Z,93310.94
2022-12-08T16:55:22.011Z,93313.41
2022-12-08T16:57:48.622Z,93310.81
2022-12-08T17:00:19.267Z,93307.00
2022-12-08T17:02:46.236Z,93301.03
2022-12-08T17:05:15.042Z,93296.53
2022-12-08T17:07:43.258Z,93297.66
2022-12-08T17:10:12.530Z,93297.75
2022-12-08T17:12:39.316Z,93307.31
2022-12-08T17:15:08.758Z,93300.09
2022-12-08T17:17:35.878Z,93305.56
2022-12-08T17:20:07.025Z,93301.75
2022-12-08T17:22:35.061Z,93311.63
2022-12-08T17:25:02.307Z,93313.63
2022-12-08T17:27:29.000Z,93309.81
2022-12-08T17:29:55.512Z,93316.22
2022-12-08T17:32:22.149Z,93318.22
2022-12-08T17:34:48.933Z,93309.13
2022-12-08T17:37:15.516Z,93305.22
2022-12-08T17:39:42.074Z,93305.47
2022-12-08T17:42:08.938Z,93313.72
2022-12-08T17:44:35.643Z,93310.31
2022-12-08T17:47:03.979Z,93312.31
2022-12-08T17:49:32.765Z,93313.81
2022-12-08T17:52:01.723Z,93313.88
2022-12-08T17:54:29.131Z,93319.25
2022-12-08T17:56:59.441Z,93324.63
2022-12-08T17:59:28.078Z,93318.13
2022-12-08T18:01:56.548Z,93318.38
2022-12-08T18:04:24.382Z,93319.78
2022-12-08T18:06:51.107Z,93319.78
2022-12-08T18:09:17.917Z,93316.22
2022-12-08T18:11:46.411Z,93314.16
2022-12-08T18:14:14.547Z,93308.53
2022-12-08T18:16:44.102Z,93303.31
2022-12-08T18:19:12.025Z,93306.69
2022-12-08T18:21:38.883Z,93311.63
2022-12-08T18:24:08.119Z,93310.69
2022-12-08T18:26:35.143Z,93315.63
2022-12-08T18:29:01.939Z,93304.44
2022-12-08T18:31:28.632Z,93305.38
2022-12-08T18:33:55.205Z,93308.06
2022-12-08T18:36:25.084Z,93305.44
2022-12-08T18:38:52.867Z,93316.41
2022-12-08T18:41:24.551Z,93313.13
2022-12-08T18:43:52.007Z,93316.03
2022-12-08T18:46:18.692Z,93297.03
2022-12-08T18:48:47.707Z,93293.41
2022-12-08T18:51:19.626Z,93298.78
2022-12-08T18:53:46.880Z,93297.78
2022-12-08T18:56:27.717Z,93297.16
2022-12-08T18:59:03.164Z,93284.25
2022-12-08T19:01:31.844Z,93284.66
2022-12-08T19:04:27.526Z,93285.81
2022-12-08T19:06:52.680Z,93283.69
2022-12-08T19:09:19.981Z,93278.69
2022-12-08T19:11:46.777Z,93280.81
2022-12-08T19:14:14.845Z,93279.50
2022-12-08T19:16:41.466Z,93274.97
2022-12-08T19:19:07.952Z,93274.78
2022-12-08T19:21:34.506Z,93280.16
2022-12-08T19:24:01.671Z,93277.25
2022-12-08T19:26:28.633Z,93273.50
2022-12-08T19:28:55.576Z,93279.41
2022-12-08T19:31:22.184Z,93275.28
2022-12-08T19:33:48.736Z,93269.59
2022-12-08T19:36:18.279Z,93260.44
2022-12-08T19:39:04.241Z,93257.41
2022-12-08T19:41:50.237Z,93255.50
2022-12-08T19:44:41.971Z,93257.53
2022-12-08T19:47:09.027Z,93255.13
2022-12-08T19:49:35.840Z,93254.13
2022-12-08T19:52:02.593Z,93248.75
2022-12-08T19:54:29.199Z,93252.66
2022-12-08T19:56:55.868Z,93249.22
2022-12-08T19:59:26.104Z,93258.16
2022-12-08T20:01:58.741Z,93254.34
2022-12-08T20:04:26.939Z,93256.81
2022-12-08T20:06:55.299Z,93252.69
2022-12-08T20:09:22.690Z,93250.78
2022-12-08T20:11:50.744Z,93254.25
2022-12-08T20:14:18.398Z,93251.44
2022-12-08T20:16:45.196Z,93253.91
2022-12-08T20:19:11.932Z,93255.38
2022-12-08T20:21:39.645Z,93251.25
2022-12-08T20:24:06.856Z,93245.53
2022-12-08T20:26:33.490Z,93241.41
2022-12-08T20:29:00.336Z,93243.75
2022-12-08T20:31:29.734Z,93250.09
2022-12-08T20:33:56.345Z,93245.44
2022-12-08T20:36:23.339Z,93241.75
2022-12-08T20:38:52.242Z,93239.19
2022-12-08T20:41:20.479Z,93242.97
2022-12-08T20:43:48.032Z,93246.44
2022-12-08T20:46:16.476Z,93245.00
2022-12-08T20:48:44.152Z,93245.75
2022-12-08T20:51:18.437Z,93237.72
2022-12-08T20:53:45.719Z,93248.31
2022-12-08T20:56:18.267Z,93242.41
2022-12-08T20:58:45.532Z,93242.75
2022-12-08T21:01:16.051Z,93248.31
2022-12-08T21:03:44.518Z,93251.44
2022-12-08T21:06:11.855Z,93243.75
2022-12-08T21:08:39.767Z,93243.50
2022-12-08T21:11:07.964Z,93246.63
2022-12-08T21:13:36.724Z,93250.06
2022-12-08T21:16:03.473Z,93245.50
2022-12-08T21:18:34.417Z,93253.41
2022-12-08T21:21:06.926Z,93247.28
2022-12-08T21:23:34.427Z,93240.47
2022-12-08T21:26:01.200Z,93243.88
2022-12-08T21:28:27.997Z,93239.13
2022-12-08T21:30:54.644Z,93251.22
2022-12-08T21:33:21.238Z,93248.25
2022-12-08T21:35:48.157Z,93243.09
2022-12-08T21:38:17.137Z,93244.88
2022-12-08T21:40:44.247Z,93245.22
2022-12-08T21:43:11.906Z,93236.97
2022-12-08T21:45:38.415Z,93238.53
2022-12-08T21:48:11.645Z,93239.75
2022-12-08T21:50:38.719Z,93243.72
2022-12-08T21:53:05.286Z,93243.66
2022-12-08T21:55:31.905Z,93241.00
2022-12-08T21:58:01.021Z,93239.00
2022-12-08T22:00:28.065Z,93240.78
2022-12-08T22:02:55.110Z,93245.75
2022-12-08T22:05:21.714Z,93238.66
2022-12-08T22:07:48.494Z,93231.53
2022-12-08T22:10:15.393Z,93235.75
2022-12-08T22:12:42.120Z,93234.78
2022-12-08T22:15:10.294Z,93230.53
2022-12-08T22:17:39.019Z,93229.97
2022-12-08T22:20:08.000Z,93232.59
2022-12-08T22:22:35.358Z,93231.28
2022-12-08T22:25:03.541Z,93230.88
2022-12-08T22:27:30.510Z,93228.09
2022-12-08T22:29:57.175Z,93220.28
2022-12-08T22:32:24.025Z,93223.16
2022-12-08T22:34:51.042Z,93222.16
2022-12-08T22:37:17.825Z,93212.91
2022-12-08T22:39:44.542Z,93210.22
2022-12-08T22:42:11.244Z,93209.34
2022-12-08T22:44:38.071Z,93209.66
2022-12-08T22:47:05.046Z,93199.19
2022-12-08T22:49:31.809Z,93192.59
2022-12-08T22:51:58.960Z,93192.84
2022-12-08T22:54:26.722Z,93195.19
2022-12-08T22:56:53.469Z,93194.53
2022-12-08T22:59:20.024Z,93189.72
2022-12-08T23:01:46.671Z,93185.22
2022-12-08T23:04:17.749Z,93186.69
2022-12-08T23:06:44.787Z,93182.56
2022-12-08T23:09:11.991Z,93178.00
2022-12-08T23:11:38.723Z,93165.06
2022-12-08T23:14:05.296Z,93166.28
2022-12-08T23:16:33.490Z,93179.66
2022-12-08T23:19:00.317Z,93182.78
2022-12-08T23:21:27.222Z,93183.34
2022-12-08T23:23:53.979Z,93178.13
2022-12-08T23:26:21.960Z,93171.97
2022-12-08T23:28:49.560Z,93171.41
2022-12-08T23:31:17.395Z,93163.09
2022-12-08T23:33:44.844Z,93151.63
2022-12-08T23:36:12.447Z,93149.94
2022-12-08T23:38:39.423Z,93151.75
2022-12-08T23:41:08.595Z,93149.72
2022-12-08T23:43:36.090Z,93149.28
2022-12-08T23:46:03.672Z,93143.03
2022-12-08T23:48:34.321Z,93140.13
2022-12-08T23:51:01.979Z,93138.25
2022-12-08T23:53:29.963Z,93139.81
2022-12-08T23:56:05.725Z,93136.34
2022-12-08T23:58:32.847Z,93141.47
